Thunder radar more information blitzortung!


Radar de pluja more information rain snow radar


Visita la nostra xarxa de llocs de meteo:

Template documentation
and downloads

And another site



No particular awareness of the weather is required.    There are no Weather-warnings

Pagina Historial Weather Underground text

Diari Resum Agost 9, 2017 Unitats:  Mètric    Imperial   Tant
« Previous Dia
SegĂźent Dia »
Diari Setmana Mensual Anual Personalitzada
  Maxima: Minima: Media:
Temperatura: -17.8 °C -9.4 °C -5.8 °C
Punt de rosada: -17.8 °C -12.1 °C -10.1 °C
Humitat: Humidity % 46 % 63 %
Wind Speed: 0 km/h 0 km/h 8.5 km/h
RĂ fegues de vent: 0 km/h - -
Vent:- - South
Pression baro: 0 hPa 34327.3 hPa -
Precipitacions: 200.66 mm    
Historical Graphs
 
 
Dades de taula per Agost 9, 2017
Temps Temperatura Punt de rosada Pression baro Vent Wind Speed RĂ fegues de vent Humitat Rainfall Rate (Hourly)
-17.8 °C -17.8 °C 0 hPa Calm     Humidity % 0 mm
00:00 -7 °C -10.2 °C 34327.3 hPa Calm     69 % 0 mm
00:02 -5.8 °C -9.3 °C 34361.1 hPa Calm     67 % 0 mm
00:07 -5.8 °C -9.4 °C 34361.1 hPa Calm     67 % 0 mm
00:10 -7.1 °C -10.2 °C 34327.3 hPa Calm   2.6 km/h 70 % 0 mm
00:20 -7.1 °C -10.3 °C 34327.3 hPa Calm   2.6 km/h 69 % 0 mm
00:30 -7.1 °C -10.3 °C 34327.3 hPa SW 2.6 km/h 2.6 km/h 69 % 0 mm
00:40 -7.1 °C -10.2 °C 34327.3 hPa Calm   5.1 km/h 70 % 0 mm
00:50 -7.1 °C -10.2 °C 34327.3 hPa Calm   2.6 km/h 70 % 0 mm
01:00 -7.1 °C -10.2 °C 34327.3 hPa WSW 2.6 km/h 5.1 km/h 70 % 0 mm
01:10 -7 °C -10.1 °C 34327.3 hPa Calm   5.1 km/h 70 % 0 mm
01:20 -6.9 °C -10.4 °C 34361.1 hPa North 7.7 km/h 10.3 km/h 67 % 0 mm
01:30 -7.1 °C -10.9 °C 34361.1 hPa NNE 2.6 km/h 7.7 km/h 64 % 0 mm
01:40 -7.2 °C -11.2 °C 34361.1 hPa NNE 2.6 km/h 7.7 km/h 63 % 0 mm
01:50 -7.2 °C -11.2 °C 34361.1 hPa NNE 2.6 km/h 5.1 km/h 63 % 0 mm
02:00 -7.3 °C -11.2 °C 34361.1 hPa NNE 2.6 km/h 5.1 km/h 64 % 0 mm
02:10 -7.4 °C -11.3 °C 34327.3 hPa Calm   2.6 km/h 64 % 0 mm
02:20 -7.5 °C -11.3 °C 34361.1 hPa Calm     64 % 0 mm
02:30 -7.3 °C -11.2 °C 34361.1 hPa Calm   5.1 km/h 64 % 0 mm
02:40 -7.2 °C -11.3 °C 34361.1 hPa NE 2.6 km/h 2.6 km/h 62 % 0 mm
02:50 -7.3 °C -11.4 °C 34361.1 hPa NE 2.6 km/h 5.1 km/h 62 % 0 mm
03:00 -7.2 °C -11.5 °C 34361.1 hPa NNE 2.6 km/h 5.1 km/h 61 % 0 mm
03:10 -6.8 °C -11.2 °C 34361.1 hPa NNE 2.6 km/h 5.1 km/h 60 % 0 mm
03:20 -6.8 °C -11.3 °C 34361.1 hPa NNE 2.6 km/h 5.1 km/h 59 % 0 mm
03:30 -6.6 °C -11.4 °C 34361.1 hPa NNE 2.6 km/h 5.1 km/h 57 % 0 mm
03:40 -6.3 °C -11.4 °C 34361.1 hPa NNE 5.1 km/h 7.7 km/h 56 % 0 mm
03:50 -6.4 °C -11.6 °C 34361.1 hPa NE 7.7 km/h 10.3 km/h 55 % 0 mm
04:00 -5.9 °C -11.5 °C 34361.1 hPa NE 2.6 km/h 10.3 km/h 53 % 0 mm
04:10 -5.8 °C -11.3 °C 34361.1 hPa NE 2.6 km/h 5.1 km/h 53 % 0 mm
04:20 -5.7 °C -11.4 °C 34361.1 hPa NNE 5.1 km/h 5.1 km/h 52 % 0 mm
04:30 -6 °C -12.1 °C 34361.1 hPa ENE 5.1 km/h 10.3 km/h 50 % 0 mm
04:40 -5.3 °C -11.2 °C 34361.1 hPa ENE 2.6 km/h 7.7 km/h 51 % 0 mm
04:50 -5.3 °C -11.4 °C 34361.1 hPa Calm   10.3 km/h 50 % 0 mm
05:00 -5.1 °C -11.3 °C 34361.1 hPa ENE 5.1 km/h 7.7 km/h 49 % 0 mm
05:10 -5.1 °C -11.4 °C 34361.1 hPa ESE 2.6 km/h 7.7 km/h 49 % 0 mm
05:20 -5.1 °C -11.4 °C 34361.1 hPa NW 2.6 km/h 5.1 km/h 49 % 0 mm
10:29 -4.3 °C -10.8 °C 34361.1 hPa NE 6 km/h 8 km/h 48 % 0 mm
10:30 -4.3 °C -10.8 °C 34361.1 hPa NE 11.9 km/h 11.9 km/h 48 % 0 mm
10:33 -4.7 °C -11.3 °C 34361.1 hPa East 9 km/h 9 km/h 47 % 0 mm
10:38 -4.2 °C -10.7 °C 34361.1 hPa South 9 km/h 9 km/h 48 % 0 mm
10:43 -4.3 °C -10.8 °C 34361.1 hPa SW 15 km/h 15 km/h 48 % 0 mm
10:44 -4.4 °C -10.9 °C 34361.1 hPa WSW 11.9 km/h 11.9 km/h 48 % 0 mm
10:49 -4.4 °C -10.9 °C 34361.1 hPa WSW 8.5 km/h 8.5 km/h 48 % 0 mm
10:54 -4.3 °C -11 °C 34361.1 hPa SSW 6 km/h 6 km/h 47 % 0 mm
10:59 -4.3 °C -10.8 °C 34361.1 hPa West 3.1 km/h   48 % 0 mm
11:04 -4.2 °C -10.7 °C 34361.1 hPa West 11.9 km/h 11.9 km/h 48 % 0 mm
11:09 -4.3 °C -10.8 °C 34361.1 hPa ENE 3.7 km/h 3.7 km/h 48 % 0 mm
11:14 -4.3 °C -10.8 °C 34361.1 hPa SW 3.1 km/h 3.1 km/h 48 % 0 mm
11:19 -4.3 °C -10.8 °C 34361.1 hPa NNW 6 km/h 6 km/h 48 % 0 mm
11:24 -4.3 °C -10.8 °C 34361.1 hPa NE 6.3 km/h 6.3 km/h 48 % 0 mm
11:29 -4.3 °C -11 °C 34361.1 hPa SSW 6 km/h 6 km/h 47 % 0 mm
11:34 -4.1 °C -10.4 °C 34361.1 hPa SW 15 km/h 15 km/h 49 % 0 mm
11:39 -3.9 °C -10.3 °C 34361.1 hPa SSE 15 km/h 15 km/h 49 % 0 mm
11:44 -4.1 °C -10.4 °C 34361.1 hPa WSW 9 km/h 9 km/h 49 % 0 mm
11:49 -3.9 °C -10.3 °C 34361.1 hPa SSW 15 km/h 15 km/h 49 % 0 mm
11:54 -3.8 °C -10.2 °C 34361.1 hPa West 11.9 km/h 11.9 km/h 49 % 0 mm
11:59 -3.8 °C -10.2 °C 34361.1 hPa SW 15 km/h 15 km/h 49 % 0 mm
12:04 -3.7 °C -10.2 °C 34361.1 hPa South 16.1 km/h 16.1 km/h 48 % 0 mm
12:09 -3.8 °C -10.4 °C 34361.1 hPa SSW 15 km/h 15 km/h 48 % 0 mm
12:14 -3.8 °C -10.2 °C 34361.1 hPa WSW 11.9 km/h 11.9 km/h 49 % 0 mm
12:19 -3.8 °C -10.3 °C 34361.1 hPa West 11.9 km/h 11.9 km/h 48 % 0 mm
12:24 -3.3 °C -9.9 °C 34361.1 hPa WNW 15 km/h 15 km/h 48 % 0 mm
12:29 -3.1 °C -9.7 °C 34361.1 hPa SW 11.9 km/h 11.9 km/h 48 % 0 mm
12:34 -3.2 °C -9.8 °C 34361.1 hPa WSW 15 km/h 15 km/h 48 % 0 mm
12:39 -2.8 °C -9.5 °C 34361.1 hPa SSW 15 km/h 15 km/h 48 % 0 mm
12:44 -2.8 °C -9.7 °C 34361.1 hPa SSW 15 km/h 15 km/h 47 % 0 mm
12:49 -2.6 °C -9.4 °C 34327.3 hPa West 14 km/h 14 km/h 47 % 0 mm
12:54 -2.7 °C -9.7 °C 34327.3 hPa SW 15 km/h 15 km/h 46 % 0 mm
12:59 -2.8 °C -9.7 °C 34327.3 hPa SSW 11.9 km/h 11.9 km/h 47 % 0 mm
13:04 -3 °C -9.6 °C 34327.3 hPa WSW 19.2 km/h 19.2 km/h 48 % 0 mm
13:09 -3.1 °C -9.7 °C 34327.3 hPa WSW 16.6 km/h 16.6 km/h 48 % 0 mm
13:14 -3.3 °C -9.9 °C 34327.3 hPa SW 17.9 km/h 17.9 km/h 48 % 0 mm
13:19 -3.3 °C -9.9 °C 34327.3 hPa SSW 9 km/h 9.8 km/h 48 % 0 mm
13:24 -3.3 °C -9.9 °C 34327.3 hPa WSW 9.8 km/h 9.8 km/h 48 % 0 mm
13:29 -3.4 °C -9.8 °C 34327.3 hPa SW 15 km/h 15 km/h 49 % 0 mm
13:34 -3.3 °C -9.7 °C 34327.3 hPa SW 9.3 km/h 9.3 km/h 49 % 0 mm
13:39 -3.1 °C -9.6 °C 34327.3 hPa SSW 9 km/h 9 km/h 49 % 0 mm
13:44 -3.2 °C -9.6 °C 34327.3 hPa SSW 22.5 km/h 22.5 km/h 49 % 0 mm
13:49 -2.7 °C -9.3 °C 34327.3 hPa SW 17.9 km/h 17.9 km/h 48 % 0 mm
13:54 -2.9 °C -9.3 °C 34327.3 hPa WSW 19.6 km/h 19.6 km/h 49 % 0 mm
13:59 -2.8 °C -9.3 °C 34327.3 hPa WSW 23.8 km/h 23.8 km/h 49 % 0 mm
14:04 -3 °C -9.4 °C 34361.1 hPa SW 23.8 km/h 23.8 km/h 49 % 0 mm
14:09 -2.9 °C -9.3 °C 34361.1 hPa SW 23.3 km/h 23.3 km/h 49 % 0 mm
14:14 -3.1 °C -9.5 °C 34361.1 hPa WSW 15.6 km/h 15.6 km/h 49 % 0 mm
14:19 -2.9 °C -9.3 °C 34327.3 hPa SSW 15 km/h 15 km/h 49 % 0 mm
14:24 -2.9 °C -9.3 °C 34327.3 hPa WNW 23.8 km/h 23.8 km/h 49 % 0 mm
14:29 -2.9 °C -9.3 °C 34327.3 hPa SSE 17.9 km/h 17.9 km/h 49 % 0 mm
14:34 -2.8 °C -9.4 °C 34327.3 hPa SW 6.8 km/h 6.8 km/h 48 % 0 mm
14:39 -2.8 °C -9.4 °C 34327.3 hPa WSW 6 km/h 6 km/h 48 % 0 mm
14:44 -2.7 °C -9.3 °C 34327.3 hPa SSW 15 km/h 15 km/h 48 % 0 mm
14:49 -2.5 °C -9 °C 34327.3 hPa SW 11.9 km/h 11.9 km/h 49 % 0 mm
14:54 -2.6 °C -9.2 °C 34327.3 hPa West 11.9 km/h 11.9 km/h 48 % 0 mm
14:59 -2.7 °C -9.3 °C 34327.3 hPa SW 19.6 km/h 19.6 km/h 48 % 0 mm
15:04 -2.6 °C -9.2 °C 34327.3 hPa SSE 9 km/h 9 km/h 48 % 0 mm
15:09 -2.9 °C -9.3 °C 34327.3 hPa SW 20.9 km/h 20.9 km/h 49 % 0 mm
15:14 -3 °C -9.4 °C 34327.3 hPa SSW 15 km/h 15 km/h 49 % 0 mm
15:19 -3 °C -9.4 °C 34327.3 hPa SW 20.9 km/h 20.9 km/h 49 % 0 mm
15:24 -3 °C -9.4 °C 34327.3 hPa SW 17.9 km/h 17.9 km/h 49 % 0 mm
15:29 -2.8 °C -9.3 °C 34327.3 hPa West 17.9 km/h 17.9 km/h 49 % 0 mm
15:34 -2.9 °C -9.4 °C 34361.1 hPa SW 20.9 km/h 20.9 km/h 49 % 0 mm
15:39 -2.6 °C -9.3 °C 34361.1 hPa South 17.9 km/h 17.9 km/h 48 % 0 mm
15:44 -2.4 °C -9.1 °C 34361.1 hPa WSW 20.9 km/h 20.9 km/h 48 % 0 mm
15:49 -2.6 °C -9.3 °C 34327.3 hPa SW 22.5 km/h 22.5 km/h 48 % 0 mm
15:54 -2.6 °C -9.3 °C 34327.3 hPa NNE 16.6 km/h 16.6 km/h 48 % 0 mm
15:59 -2.6 °C -9.2 °C 34327.3 hPa SW 9 km/h 9 km/h 48 % 0 mm
16:04 -2.6 °C -9.2 °C 34361.1 hPa SSW 20.9 km/h 20.9 km/h 48 % 0 mm
16:09 -2.5 °C -9.3 °C 34361.1 hPa SW 11.9 km/h 11.9 km/h 47 % 0 mm
16:14 -2.8 °C -9.3 °C 34361.1 hPa SSW 15 km/h 15 km/h 49 % 0 mm
16:19 -2.7 °C -9.3 °C 34327.3 hPa WSW 9.8 km/h 9.8 km/h 48 % 0 mm
16:24 -2.6 °C -9.3 °C 34327.3 hPa SSE 7.6 km/h 7.6 km/h 48 % 0 mm
16:29 -2.7 °C -9.3 °C 34327.3 hPa West 9 km/h 9 km/h 48 % 0 mm
16:34 -2.8 °C -9.4 °C 34327.3 hPa SW 15 km/h 15 km/h 48 % 0 mm
16:39 -3.1 °C -9.5 °C 34327.3 hPa SW 17.9 km/h 17.9 km/h 49 % 0 mm
16:44 -2.9 °C -9.4 °C 34327.3 hPa SSE 11.9 km/h 11.9 km/h 49 % 0 mm
16:49 -3.4 °C -9.8 °C 34327.3 hPa SSW 11.9 km/h 11.9 km/h 49 % 0 mm
16:54 -3.3 °C -9.8 °C 34327.3 hPa SSE 9 km/h 9 km/h 49 % 0 mm
16:59 -3.6 °C -9.8 °C 34327.3 hPa ESE 15 km/h 15 km/h 50 % 0 mm
17:04 -3.7 °C -9.9 °C 34327.3 hPa SSE 10.3 km/h 10.3 km/h 50 % 0 mm
17:09 -3.9 °C -9.9 °C 34327.3 hPa South 20.9 km/h 20.9 km/h 51 % 0 mm
17:19 -4.1 °C -9.9 °C 34327.3 hPa ESE 9 km/h 9 km/h 52 % 0 mm
17:24 -4.1 °C -9.9 °C 34327.3 hPa SSE 11.9 km/h 11.9 km/h 52 % 0 mm
17:29 -4.2 °C -10.1 °C 34327.3 hPa ESE 6 km/h 6 km/h 52 % 0 mm
17:34 -4.3 °C -10.2 °C 34361.1 hPa ESE 6 km/h 6 km/h 52 % 0 mm
17:39 -4.5 °C -10.3 °C 34361.1 hPa ESE 17.9 km/h 17.9 km/h 52 % 0 mm
17:44 -4.6 °C -10.4 °C 34361.1 hPa ESE 15 km/h 15 km/h 52 % 0 mm
17:49 -4.6 °C -10.2 °C 34361.1 hPa North 15 km/h 15 km/h 53 % 0 mm
17:54 -4.6 °C -10.2 °C 34361.1 hPa ENE 15 km/h 15 km/h 53 % 0 mm
17:59 -4.7 °C -10.3 °C 34361.1 hPa NE 17.9 km/h 17.9 km/h 53 % 0 mm
18:04 -4.8 °C -10.4 °C 34361.1 hPa North 23.8 km/h 23.8 km/h 53 % 0 mm
18:09 -4.9 °C -10.2 °C 34361.1 hPa ESE 20.9 km/h 20.9 km/h 55 % 0 mm
18:14 -5.2 °C -10.2 °C 34361.1 hPa East 23.8 km/h 23.8 km/h 57 % 0 mm
18:19 -5.4 °C -10.2 °C 34361.1 hPa East 17.9 km/h 17.9 km/h 58 % 0 mm
18:24 -5.5 °C -10.2 °C 34361.1 hPa ESE 22 km/h 22 km/h 59 % 0 mm
18:29 -5.5 °C -10.1 °C 34361.1 hPa SE 16.1 km/h 16.1 km/h 60 % 0 mm
18:34 -5.6 °C -9.9 °C 34327.3 hPa ESE 15 km/h 15 km/h 61 % 0 mm
18:35 -5.6 °C -9.9 °C 34327.3 hPa SE 12.2 km/h 12.2 km/h 61 % 0 mm
18:40 -5.6 °C -10.2 °C 34327.3 hPa ESE 23.8 km/h 23.8 km/h 59 % 0 mm
18:45 -5.6 °C -10.2 °C 34361.1 hPa ENE 22 km/h 22 km/h 59 % 0 mm
18:50 -5.6 °C -10.4 °C 34361.1 hPa ESE 23.8 km/h 23.8 km/h 58 % 0 mm
18:55 -5.7 °C -10.1 °C 34361.1 hPa East 11.9 km/h 11.9 km/h 61 % 0 mm
19:00 -6 °C -10.1 °C 34361.1 hPa WNW 11.9 km/h 11.9 km/h 63 % 0 mm
19:05 -6.5 °C -10.2 °C 34361.1 hPa SW 15 km/h 15 km/h 66 % 25.4 mm
19:10 -6.7 °C -10.1 °C 34361.1 hPa WSW 11.9 km/h 11.9 km/h 68 % 25.4 mm
19:15 -6.8 °C -9.7 °C 34395 hPa North 6 km/h 6 km/h 72 % 25.4 mm
19:20 -6.9 °C -9.7 °C 34395 hPa West 6 km/h 6 km/h 73 % 25.4 mm
19:25 -6.9 °C -9.6 °C 34395 hPa NNW 6 km/h 6 km/h 74 % 25.4 mm
19:30 -7.1 °C -9.7 °C 34395 hPa NW 6 km/h 6 km/h 74 % 25.4 mm
19:35 -7.1 °C -9.6 °C 34395 hPa WSW 3.1 km/h 4.2 km/h 75 % 25.4 mm
19:40 -7.2 °C -9.8 °C 34395 hPa NW 6.3 km/h 6.3 km/h 75 % 25.4 mm
19:45 -7.3 °C -9.6 °C 34395 hPa WNW 9 km/h 9 km/h 77 % 25.4 mm
19:50 -7.3 °C -9.5 °C 34395 hPa West 3.1 km/h 3.1 km/h 78 % 25.4 mm
19:55 -7.4 °C -9.6 °C 34395 hPa North 9 km/h 9 km/h 78 % 25.4 mm
20:00 -7.4 °C -9.4 °C 34395 hPa NNW 3.1 km/h   79 % 25.4 mm
20:05 -7.4 °C -9.4 °C 34395 hPa ESE 3.7 km/h 3.7 km/h 79 % 0 mm
20:10 -7.4 °C -9.4 °C 34395 hPa WNW 3.1 km/h 3.1 km/h 79 % 0 mm
20:15 -7.4 °C -9.5 °C 34395 hPa West 3.1 km/h 3.1 km/h 79 % 0 mm
20:20 -7.4 °C -9.3 °C 34395 hPa Calm     81 % 0 mm
20:25 -7.5 °C -9.3 °C 34395 hPa Calm     81 % 0 mm
20:26 -7.5 °C -9.3 °C 34395 hPa Calm     81 % 0 mm
20:30 -8.7 °C -9.7 °C 34462.7 hPa Calm     89 % 0 mm
20:31 -7.5 °C -9.3 °C 34395 hPa Calm     81 % 0 mm
20:36 -7.6 °C -9.4 °C 34395 hPa Calm     81 % 0 mm
20:40 -8.6 °C -9.6 °C 34462.7 hPa NE 5.1 km/h 7.7 km/h 90 % 0 mm
20:41 -7.7 °C -9.5 °C 34395 hPa SW 4.2 km/h   81 % 0 mm
20:46 -7.7 °C -9.5 °C 34395 hPa WSW 3.1 km/h   81 % 0 mm
20:50 -8.7 °C -9.7 °C 34462.7 hPa East 5.1 km/h 7.7 km/h 89 % 0 mm
20:51 -7.6 °C -9.4 °C 34395 hPa WSW 6.3 km/h   81 % 0 mm
20:56 -7.6 °C -9.4 °C 34395 hPa SW 3.1 km/h   81 % 0 mm
21:00 -8.7 °C -9.8 °C 34462.7 hPa SW 5.1 km/h 7.7 km/h 88 % 0 mm
21:01 -7.5 °C -9.3 °C 34428.8 hPa West 6 km/h 6 km/h 81 % 0 mm
21:06 -7.5 °C -9.1 °C 34428.8 hPa WSW 3.1 km/h   83 % 0 mm
21:10 -8.7 °C -9.7 °C 34462.7 hPa Calm   5.1 km/h 89 % 0 mm
21:11 -7.6 °C -9.3 °C 34428.8 hPa SW 6 km/h 6 km/h 82 % 0 mm
21:16 -7.5 °C -9.1 °C 34395 hPa NE 8 km/h 8 km/h 83 % 0 mm
21:20 -8.8 °C -9.9 °C 34462.7 hPa West 5.1 km/h 5.1 km/h 88 % 0 mm
21:21 -7.6 °C -9.2 °C 34395 hPa WNW 6 km/h 6 km/h 83 % 0 mm
21:26 -7.6 °C -9.2 °C 34395 hPa ENE 6.3 km/h 6.3 km/h 83 % 0 mm
21:30 -8.8 °C -9.9 °C 34462.7 hPa WSW 2.6 km/h 7.7 km/h 88 % 0 mm
21:31 -7.8 °C -9.5 °C 34428.8 hPa NNE 6 km/h 6 km/h 82 % 0 mm
21:36 -7.7 °C -9.3 °C 34428.8 hPa West 4.2 km/h 4.2 km/h 83 % 0 mm
21:40 -8.9 °C -10 °C 34496.6 hPa WSW 2.6 km/h 7.7 km/h 88 % 0 mm
21:41 -7.7 °C -9.3 °C 34428.8 hPa SW 6 km/h 6 km/h 83 % 0 mm
21:46 -7.8 °C -9.5 °C 34462.7 hPa SW 6 km/h 6 km/h 83 % 0 mm
21:50 -8.9 °C -9.9 °C 34496.6 hPa Calm   5.1 km/h 89 % 0 mm
21:51 -8 °C -9.6 °C 34462.7 hPa WSW 6 km/h 6 km/h 83 % 0 mm
21:56 -8 °C -9.6 °C 34462.7 hPa SW 6 km/h 6 km/h 83 % 0 mm
22:00 -9 °C -10.1 °C 34496.6 hPa SW 5.1 km/h 7.7 km/h 88 % 0 mm
22:01 -8.1 °C -9.7 °C 34462.7 hPa SW 6 km/h 6 km/h 83 % 0 mm
22:06 -8.2 °C -9.8 °C 34462.7 hPa WSW 6 km/h 6 km/h 83 % 0 mm
22:10 -9.1 °C -10.3 °C 34462.7 hPa WSW 5.1 km/h 10.3 km/h 87 % 0 mm
22:11 -8.2 °C -9.8 °C 34462.7 hPa WSW 3.1 km/h   83 % 0 mm
22:16 -8.3 °C -10.1 °C 34462.7 hPa SSW 6 km/h 6 km/h 82 % 0 mm
22:20 -9.2 °C -10.5 °C 34462.7 hPa WSW 7.7 km/h 10.3 km/h 86 % 0 mm
22:21 -8.4 °C -9.9 °C 34462.7 hPa WSW 6 km/h 6 km/h 84 % 0 mm
22:26 -8.4 °C -9.9 °C 34462.7 hPa Calm     84 % 0 mm
22:30 -9.3 °C -10.6 °C 34462.7 hPa West 2.6 km/h 5.1 km/h 86 % 0 mm
22:31 -8.5 °C -10.1 °C 34462.7 hPa SW 6 km/h 6.3 km/h 83 % 0 mm
22:36 -8.5 °C -10 °C 34462.7 hPa SW 6 km/h   84 % 0 mm
22:40 -9.3 °C -10.4 °C 34462.7 hPa West 2.6 km/h 7.7 km/h 87 % 0 mm
22:41 -8.6 °C -10.2 °C 34462.7 hPa SW 9 km/h 9 km/h 83 % 0 mm
22:46 -8.5 °C -9.9 °C 34496.6 hPa Calm     85 % 0 mm
22:50 -9.3 °C -10.6 °C 34462.7 hPa West 2.6 km/h 5.1 km/h 86 % 0 mm
22:51 -8.5 °C -9.9 °C 34496.6 hPa Calm     85 % 0 mm
22:56 -8.6 °C -10.1 °C 34496.6 hPa Calm     85 % 0 mm
23:00 -9.3 °C -10.6 °C 34462.7 hPa WSW 5.1 km/h 7.7 km/h 86 % 0 mm
23:01 -8.6 °C -10.1 °C 34496.6 hPa WSW 3.7 km/h 3.7 km/h 85 % 0 mm
23:06 -8.6 °C -10.1 °C 34496.6 hPa SW 6 km/h 6 km/h 85 % 0 mm
23:10 -9.3 °C -10.7 °C 34462.7 hPa Calm   7.7 km/h 85 % 0 mm
23:11 -8.6 °C -10.1 °C 34496.6 hPa Calm     85 % 0 mm
23:16 -8.6 °C -9.9 °C 34462.7 hPa WNW 6 km/h 6 km/h 86 % 0 mm
23:20 -9.3 °C -10.7 °C 34462.7 hPa Calm   2.6 km/h 85 % 0 mm
23:21 -8.6 °C -9.9 °C 34462.7 hPa SW 2.3 km/h 2.3 km/h 86 % 0 mm
23:26 -8.6 °C -9.9 °C 34462.7 hPa WSW 3.1 km/h   86 % 180.34 mm
23:30 -9.3 °C -10.7 °C 34462.7 hPa SW 2.6 km/h 5.1 km/h 85 % 0 mm
23:31 -8.6 °C -9.8 °C 34462.7 hPa Calm     87 % 180.34 mm
23:36 -8.6 °C -9.8 °C 34462.7 hPa Calm     87 % 180.34 mm
23:40 -9.4 °C -10.9 °C 34462.7 hPa SW 7.7 km/h 7.7 km/h 84 % 0 mm
23:41 -8.7 °C -9.9 °C 34462.7 hPa WSW 3.1 km/h   87 % 180.34 mm
23:46 -8.7 °C -9.9 °C 34496.6 hPa Calm     87 % 180.34 mm
23:50 -9.4 °C -10.9 °C 34462.7 hPa WSW 2.6 km/h 5.1 km/h 84 % 0 mm
23:51 -8.7 °C -9.9 °C 34496.6 hPa Calm     87 % 180.34 mm
Meteo Sesrovires
Elogis d' Weather Underground - 2 mb

Guio original per  Jim McMurry - jmcmurry@mwt.net Adaptat per a la plantilla per  Wim van der Kuil - Leuven-Template.eu

Trobareu la nostra informacio del temps tambe a:

Weather Underground

AWEKAS